createdAt,value
2022-12-25T00:00:50.271Z,4.37
2022-12-25T00:03:36.773Z,4.40
2022-12-25T00:06:23.424Z,4.67
2022-12-25T00:09:09.881Z,3.73
2022-12-25T00:11:56.438Z,5.80
2022-12-25T00:14:42.767Z,5.33
2022-12-25T00:17:30.482Z,4.93
2022-12-25T00:20:16.824Z,4.17
2022-12-25T00:23:03.000Z,3.57
2022-12-25T00:25:49.641Z,6.10
2022-12-25T00:28:37.005Z,3.70
2022-12-25T00:31:24.159Z,3.47
2022-12-25T00:34:12.277Z,3.07
2022-12-25T00:36:58.828Z,4.63
2022-12-25T00:39:45.145Z,5.93
2022-12-25T00:42:31.396Z,4.33
2022-12-25T00:45:17.858Z,5.90
2022-12-25T00:48:04.466Z,4.37
2022-12-25T00:50:55.722Z,5.30
2022-12-25T00:53:41.961Z,4.30
2022-12-25T00:56:28.701Z,4.10
2022-12-25T00:59:15.313Z,5.90
2022-12-25T01:02:22.118Z,3.20
2022-12-25T01:05:09.028Z,3.90
2022-12-25T01:07:56.570Z,2.97
2022-12-25T01:10:41.905Z,3.73
2022-12-25T01:13:29.658Z,4.57
2022-12-25T01:16:16.514Z,4.70
2022-12-25T01:19:03.246Z,6.97
2022-12-25T01:21:51.031Z,6.73
2022-12-25T01:24:38.876Z,3.67
2022-12-25T01:27:25.201Z,5.03
2022-12-25T01:30:12.015Z,5.17
2022-12-25T01:32:58.224Z,8.03
2022-12-25T01:35:44.416Z,11.70
2022-12-25T01:38:30.652Z,4.60
2022-12-25T01:41:19.162Z,15.83
2022-12-25T01:44:06.863Z,6.17
2022-12-25T01:46:53.110Z,6.27
2022-12-25T01:49:40.368Z,3.63
2022-12-25T01:52:26.909Z,7.50
2022-12-25T01:55:13.855Z,4.63
2022-12-25T01:58:01.444Z,5.70
2022-12-25T02:00:48.074Z,3.20
2022-12-25T02:03:34.573Z,3.90
2022-12-25T02:06:20.739Z,4.93
2022-12-25T02:09:07.037Z,4.20
2022-12-25T02:11:59.237Z,4.13
2022-12-25T02:14:49.303Z,3.60
2022-12-25T02:17:37.294Z,5.30
2022-12-25T02:20:36.354Z,3.93
2022-12-25T02:23:46.666Z,3.03
2022-12-25T02:26:43.238Z,3.07
2022-12-25T02:29:34.396Z,3.90
2022-12-25T02:32:24.384Z,5.63
2022-12-25T02:35:13.636Z,3.60
2022-12-25T02:38:03.424Z,4.20
2022-12-25T02:40:50.598Z,4.67
2022-12-25T02:43:57.456Z,3.67
2022-12-25T02:47:02.677Z,5.47
2022-12-25T02:50:07.061Z,4.87
2022-12-25T02:53:11.637Z,5.63
2022-12-25T02:56:15.803Z,2.57
2022-12-25T02:59:19.949Z,2.97
2022-12-25T03:02:25.511Z,3.67
2022-12-25T03:05:32.631Z,4.03
2022-12-25T03:08:20.978Z,5.47
2022-12-25T03:11:26.499Z,3.13
2022-12-25T03:14:30.073Z,3.60
2022-12-25T03:17:17.852Z,6.40
2022-12-25T03:20:22.802Z,4.30
2022-12-25T03:23:27.289Z,6.77
2022-12-25T03:26:31.291Z,5.93
2022-12-25T03:29:31.947Z,6.13
2022-12-25T03:32:26.562Z,4.73
2022-12-25T03:35:24.189Z,3.80
2022-12-25T03:38:37.565Z,4.93
2022-12-25T03:41:46.161Z,4.90
2022-12-25T03:44:53.325Z,3.53
2022-12-25T03:48:01.965Z,8.30
2022-12-25T03:51:07.422Z,7.73
2022-12-25T03:54:13.569Z,3.37
2022-12-25T03:57:17.667Z,5.37
2022-12-25T04:00:22.144Z,4.73
2022-12-25T04:03:26.862Z,5.97
2022-12-25T04:06:30.968Z,6.43
2022-12-25T04:09:34.503Z,4.27
2022-12-25T04:12:38.150Z,5.47
2022-12-25T04:15:42.243Z,21.90
2022-12-25T04:18:59.057Z,8.83
2022-12-25T04:22:02.869Z,9.27
2022-12-25T04:25:06.820Z,10.77
2022-12-25T04:28:09.792Z,4.77
2022-12-25T04:31:13.681Z,4.03
2022-12-25T04:34:19.309Z,5.37
2022-12-25T04:37:05.560Z,6.10
2022-12-25T04:39:51.726Z,7.10
2022-12-25T04:42:37.916Z,9.87
2022-12-25T04:45:24.076Z,5.33
2022-12-25T04:48:10.265Z,5.77
2022-12-25T04:50:57.888Z,6.23
2022-12-25T04:53:44.575Z,3.80
2022-12-25T04:56:30.754Z,6.27
2022-12-25T04:59:17.049Z,4.53
2022-12-25T05:02:03.317Z,9.07
2022-12-25T05:04:50.904Z,6.63
2022-12-25T05:07:38.529Z,6.13
2022-12-25T05:10:25.288Z,4.93
2022-12-25T05:13:11.828Z,4.97
2022-12-25T05:15:57.975Z,4.70
2022-12-25T05:18:44.825Z,5.60
2022-12-25T05:21:31.159Z,4.83
2022-12-25T05:24:18.741Z,4.37
2022-12-25T05:27:05.189Z,6.27
2022-12-25T05:29:51.624Z,8.90
2022-12-25T05:32:37.699Z,5.27
2022-12-25T05:35:24.134Z,26.70
2022-12-25T05:38:10.262Z,10.57
2022-12-25T05:40:57.705Z,18.97
2022-12-25T05:43:44.317Z,10.87
2022-12-25T05:46:30.527Z,12.40
2022-12-25T05:49:17.026Z,10.43
2022-12-25T05:52:03.201Z,7.33
2022-12-25T05:54:49.981Z,32.40
2022-12-25T05:57:37.389Z,18.33
2022-12-25T06:00:24.045Z,11.13
2022-12-25T06:03:10.356Z,5.83
2022-12-25T06:05:56.956Z,14.37
2022-12-25T06:08:43.255Z,7.10
2022-12-25T06:11:29.420Z,8.60
2022-12-25T06:14:17.399Z,7.33
2022-12-25T06:17:03.703Z,8.83
2022-12-25T06:19:49.970Z,6.03
2022-12-25T06:22:36.713Z,3.83
2022-12-25T06:25:23.534Z,3.23
2022-12-25T06:28:09.708Z,5.47
2022-12-25T06:30:57.737Z,3.57
2022-12-25T06:33:44.485Z,7.87
2022-12-25T06:36:30.719Z,12.80
2022-12-25T06:39:17.283Z,16.90
2022-12-25T06:42:03.693Z,12.53
2022-12-25T06:44:51.081Z,18.80
2022-12-25T06:47:39.497Z,17.20
2022-12-25T06:50:26.036Z,13.23
2022-12-25T06:53:12.522Z,11.50
2022-12-25T06:56:03.449Z,11.77
2022-12-25T06:58:50.857Z,13.23
2022-12-25T07:01:39.136Z,10.20
2022-12-25T07:04:32.152Z,7.27
2022-12-25T07:07:18.566Z,11.97
2022-12-25T07:10:05.080Z,10.70
2022-12-25T07:12:51.459Z,10.07
2022-12-25T07:15:37.828Z,18.57
2022-12-25T07:18:24.460Z,11.37
2022-12-25T07:21:13.647Z,9.63
2022-12-25T07:24:00.351Z,9.50
2022-12-25T07:26:46.811Z,9.07
2022-12-25T07:29:33.263Z,10.33
2022-12-25T07:32:19.675Z,12.37
2022-12-25T07:35:06.219Z,11.10
2022-12-25T07:37:54.443Z,12.43
2022-12-25T07:40:40.738Z,7.27
2022-12-25T07:43:27.198Z,7.67
2022-12-25T07:46:13.549Z,6.37
2022-12-25T07:49:00.212Z,7.60
2022-12-25T07:51:46.658Z,8.17
2022-12-25T07:54:34.499Z,10.37
2022-12-25T07:57:20.961Z,7.97
2022-12-25T08:00:08.842Z,7.27
2022-12-25T08:02:55.554Z,3.10
2022-12-25T08:05:42.136Z,8.87
2022-12-25T08:08:28.924Z,4.50
2022-12-25T08:11:16.813Z,4.40
2022-12-25T08:14:05.852Z,3.20
2022-12-25T08:16:52.193Z,3.10
2022-12-25T08:19:39.002Z,5.80
2022-12-25T08:22:25.171Z,2.30
2022-12-25T08:25:11.295Z,3.77
2022-12-25T08:28:00.010Z,6.97
2022-12-25T08:30:46.173Z,7.50
2022-12-25T08:33:32.267Z,3.80
2022-12-25T08:36:19.011Z,2.87
2022-12-25T08:39:05.594Z,3.70
2022-12-25T08:41:51.855Z,2.80
2022-12-25T08:44:41.079Z,4.43
2022-12-25T08:47:29.759Z,3.07
2022-12-25T08:50:16.423Z,2.83
2022-12-25T08:53:03.997Z,4.07
2022-12-25T08:55:50.317Z,2.77
2022-12-25T08:58:37.158Z,3.17
2022-12-25T09:01:25.029Z,2.27
2022-12-25T09:04:11.423Z,2.77
2022-12-25T09:06:57.998Z,4.13
2022-12-25T09:09:44.550Z,3.80
2022-12-25T09:12:30.639Z,3.70
2022-12-25T09:15:16.747Z,3.33
2022-12-25T09:18:04.289Z,3.07
2022-12-25T09:20:58.175Z,5.93
2022-12-25T09:23:44.426Z,2.80
2022-12-25T09:26:31.008Z,2.47
2022-12-25T09:29:18.112Z,2.00
2022-12-25T09:32:04.653Z,3.07
2022-12-25T09:34:53.057Z,2.50
2022-12-25T09:37:39.511Z,3.03
2022-12-25T09:40:26.991Z,3.50
2022-12-25T09:43:16.095Z,3.17
2022-12-25T09:46:03.418Z,1.93
2022-12-25T09:48:56.826Z,2.57
2022-12-25T09:51:45.187Z,5.50
2022-12-25T09:54:37.820Z,11.40
2022-12-25T09:57:25.629Z,2.23
2022-12-25T10:00:15.306Z,2.13
2022-12-25T10:03:14.758Z,1.67
2022-12-25T10:06:13.638Z,1.90
2022-12-25T10:09:08.366Z,1.00
2022-12-25T10:11:58.676Z,2.33
2022-12-25T10:14:51.814Z,3.50
2022-12-25T10:17:42.911Z,1.80
2022-12-25T10:20:38.191Z,2.23
2022-12-25T10:23:27.244Z,1.60
2022-12-25T10:26:16.988Z,1.90
2022-12-25T10:29:06.461Z,1.57
2022-12-25T10:31:54.853Z,2.10
2022-12-25T10:34:42.222Z,1.53
2022-12-25T10:37:28.764Z,2.37
2022-12-25T10:40:25.710Z,3.23
2022-12-25T10:43:16.604Z,1.73
2022-12-25T10:46:02.880Z,2.47
2022-12-25T10:48:51.072Z,2.03
2022-12-25T10:51:38.378Z,1.60
2022-12-25T10:54:26.448Z,1.77
2022-12-25T10:57:17.265Z,2.00
2022-12-25T11:00:06.075Z,2.70
2022-12-25T11:02:52.598Z,1.90
2022-12-25T11:05:39.225Z,2.30
2022-12-25T11:08:26.932Z,2.43
2022-12-25T11:11:19.029Z,2.73
2022-12-25T11:14:05.249Z,1.57
2022-12-25T11:16:52.923Z,3.70
2022-12-25T11:19:39.349Z,1.47
2022-12-25T11:22:26.314Z,1.80
2022-12-25T11:25:13.325Z,1.57
2022-12-25T11:28:00.411Z,2.13
2022-12-25T11:30:49.387Z,3.07
2022-12-25T11:33:39.912Z,2.40
2022-12-25T11:36:29.774Z,1.57
2022-12-25T11:39:23.086Z,1.23
2022-12-25T11:42:14.526Z,2.77
2022-12-25T11:45:03.581Z,1.83
2022-12-25T11:47:51.073Z,1.93
2022-12-25T11:50:41.317Z,2.13
2022-12-25T11:53:30.896Z,1.40
2022-12-25T11:56:18.574Z,1.23
2022-12-25T11:59:08.021Z,1.50
2022-12-25T12:01:56.046Z,1.70
2022-12-25T12:04:44.165Z,1.60
2022-12-25T12:07:33.910Z,2.60
2022-12-25T12:10:22.602Z,2.30
2022-12-25T12:13:15.464Z,2.53
2022-12-25T12:16:03.946Z,2.03
2022-12-25T12:18:51.051Z,2.47
2022-12-25T12:21:37.552Z,3.10
2022-12-25T12:24:25.806Z,2.23
2022-12-25T12:27:19.835Z,1.90
2022-12-25T12:30:07.475Z,3.00
2022-12-25T12:32:54.950Z,1.80
2022-12-25T12:35:41.726Z,3.23
2022-12-25T12:38:27.826Z,2.37
2022-12-25T12:41:16.427Z,2.60
2022-12-25T12:44:04.721Z,1.63
2022-12-25T12:46:52.749Z,2.80
2022-12-25T12:49:39.204Z,3.53
2022-12-25T12:52:26.597Z,2.93
2022-12-25T12:55:13.670Z,1.80
2022-12-25T12:58:02.155Z,2.27
2022-12-25T13:00:52.424Z,1.57
2022-12-25T13:04:03.724Z,4.10
2022-12-25T13:06:53.793Z,1.70
2022-12-25T13:09:46.465Z,2.47
2022-12-25T13:12:32.740Z,3.33
2022-12-25T13:15:20.660Z,4.80
2022-12-25T13:18:08.065Z,2.00
2022-12-25T13:20:56.309Z,2.83
2022-12-25T13:23:42.821Z,1.50
2022-12-25T13:26:29.731Z,1.50
2022-12-25T13:29:30.010Z,2.10
2022-12-25T13:32:20.297Z,2.70
2022-12-25T13:35:12.930Z,2.33
2022-12-25T13:37:59.362Z,3.03
2022-12-25T13:41:11.225Z,3.53
2022-12-25T13:43:58.075Z,4.90
2022-12-25T13:46:44.630Z,3.07
2022-12-25T13:49:32.975Z,4.07
2022-12-25T13:52:21.244Z,1.53
2022-12-25T13:55:13.234Z,3.53
2022-12-25T13:58:00.367Z,1.93
2022-12-25T14:00:47.739Z,2.77
2022-12-25T14:03:35.693Z,2.70
2022-12-25T14:06:25.912Z,5.43
2022-12-25T14:09:13.229Z,2.93
2022-12-25T14:11:59.415Z,3.20
2022-12-25T14:14:45.772Z,3.77
2022-12-25T14:17:32.000Z,2.43
2022-12-25T14:20:25.160Z,2.87
2022-12-25T14:23:15.873Z,3.73
2022-12-25T14:26:01.933Z,3.47
2022-12-25T14:28:48.958Z,2.70
2022-12-25T14:31:35.777Z,2.00
2022-12-25T14:34:23.106Z,6.13
2022-12-25T14:37:14.465Z,3.43
2022-12-25T14:40:03.054Z,4.33
2022-12-25T14:42:55.857Z,3.70
2022-12-25T14:45:42.352Z,4.20
2022-12-25T14:48:29.985Z,3.23
2022-12-25T14:51:17.831Z,2.60
2022-12-25T14:54:05.344Z,4.37
2022-12-25T14:56:56.104Z,5.37
2022-12-25T14:59:42.495Z,3.17
2022-12-25T15:02:30.530Z,3.80
2022-12-25T15:05:30.901Z,4.30
2022-12-25T15:08:21.884Z,3.10
2022-12-25T15:11:09.776Z,2.30
2022-12-25T15:13:57.575Z,8.10
2022-12-25T15:16:46.014Z,9.73
2022-12-25T15:19:37.680Z,3.20
2022-12-25T15:22:24.784Z,3.10
2022-12-25T15:25:14.375Z,5.77
2022-12-25T15:28:01.252Z,3.97
2022-12-25T15:30:49.839Z,17.80
2022-12-25T15:33:42.232Z,11.63
2022-12-25T15:36:30.644Z,15.17
2022-12-25T15:39:16.893Z,13.37
2022-12-25T15:42:12.741Z,14.53
2022-12-25T15:44:59.157Z,15.43
2022-12-25T15:47:47.081Z,11.57
2022-12-25T15:50:36.722Z,12.33
2022-12-25T15:53:23.153Z,8.57
2022-12-25T15:56:10.414Z,10.10
2022-12-25T15:58:57.039Z,11.77
2022-12-25T16:01:44.958Z,23.57
2022-12-25T16:04:32.550Z,32.23
2022-12-25T16:07:19.719Z,24.83
2022-12-25T16:10:06.404Z,26.90
2022-12-25T16:12:52.854Z,26.20
2022-12-25T16:15:39.300Z,17.50
2022-12-25T16:18:25.958Z,19.83
2022-12-25T16:21:15.152Z,30.80
2022-12-25T16:24:01.832Z,28.20
2022-12-25T16:26:48.464Z,35.37
2022-12-25T16:29:34.939Z,49.93
2022-12-25T16:32:21.591Z,51.77
2022-12-25T16:35:07.866Z,26.47
2022-12-25T16:37:55.460Z,28.17
2022-12-25T16:40:41.963Z,27.50
2022-12-25T16:43:28.626Z,24.60
2022-12-25T16:46:15.922Z,21.97
2022-12-25T16:49:02.386Z,22.93
2022-12-25T16:51:48.714Z,21.40
2022-12-25T16:54:36.696Z,20.80
2022-12-25T16:57:23.451Z,21.07
2022-12-25T17:00:10.177Z,24.80
2022-12-25T17:02:57.128Z,16.80
2022-12-25T17:05:43.816Z,23.23
2022-12-25T17:08:30.320Z,23.47
2022-12-25T17:11:19.166Z,28.17
2022-12-25T17:14:06.345Z,15.73
2022-12-25T17:16:52.649Z,20.50
2022-12-25T17:19:39.305Z,19.57
2022-12-25T17:22:25.605Z,16.87
2022-12-25T17:25:12.029Z,20.47
2022-12-25T17:27:59.467Z,28.70
2022-12-25T17:30:46.003Z,28.60
2022-12-25T17:33:32.411Z,52.63
2022-12-25T17:36:19.162Z,28.30
2022-12-25T17:39:06.928Z,24.97
2022-12-25T17:41:53.207Z,19.70
2022-12-25T17:44:40.826Z,18.50
2022-12-25T17:47:27.577Z,17.63
2022-12-25T17:50:14.120Z,18.47
2022-12-25T17:53:02.655Z,12.77
2022-12-25T17:55:49.532Z,6.40
2022-12-25T17:58:35.881Z,5.67
2022-12-25T18:01:24.322Z,6.83
2022-12-25T18:04:11.086Z,9.77
2022-12-25T18:06:57.881Z,8.07
2022-12-25T18:09:44.255Z,9.17
2022-12-25T18:12:30.737Z,13.10
2022-12-25T18:15:17.451Z,15.63
2022-12-25T18:18:05.353Z,20.30
2022-12-25T18:20:54.019Z,15.20
2022-12-25T18:23:40.224Z,16.90
2022-12-25T18:26:28.879Z,25.10
2022-12-25T18:29:15.184Z,18.93
2022-12-25T18:32:01.524Z,10.37
2022-12-25T18:34:58.682Z,11.13
2022-12-25T18:37:45.045Z,14.17
2022-12-25T18:40:31.298Z,12.83
2022-12-25T18:43:17.443Z,25.57
2022-12-25T18:46:04.938Z,21.33
2022-12-25T18:48:51.632Z,23.77
2022-12-25T18:51:39.866Z,31.47
2022-12-25T18:54:26.135Z,29.17
2022-12-25T18:57:12.800Z,20.53
2022-12-25T18:59:59.228Z,18.50
2022-12-25T19:02:45.578Z,16.70
2022-12-25T19:05:32.280Z,27.63
2022-12-25T19:08:19.983Z,15.63
2022-12-25T19:11:09.635Z,21.33
2022-12-25T19:13:56.189Z,18.67
2022-12-25T19:16:42.443Z,11.73
2022-12-25T19:19:28.969Z,16.97
2022-12-25T19:22:15.460Z,24.60
2022-12-25T19:25:03.121Z,39.40
2022-12-25T19:27:51.421Z,35.90
2022-12-25T19:30:38.995Z,22.00
2022-12-25T19:33:25.283Z,20.50
2022-12-25T19:36:13.012Z,33.93
2022-12-25T19:38:59.700Z,30.17
2022-12-25T19:41:47.779Z,46.20
2022-12-25T19:44:34.146Z,30.73
2022-12-25T19:47:20.400Z,97.00
2022-12-25T19:50:07.473Z,133.83
2022-12-25T19:52:54.256Z,103.33
2022-12-25T19:55:40.381Z,83.73
2022-12-25T19:58:27.917Z,33.33
2022-12-25T20:01:15.192Z,35.73
2022-12-25T20:04:01.592Z,21.10
2022-12-25T20:06:48.337Z,21.63
2022-12-25T20:09:35.791Z,15.73
2022-12-25T20:12:22.287Z,9.90
2022-12-25T20:15:11.512Z,10.60
2022-12-25T20:17:57.914Z,5.40
2022-12-25T20:20:44.394Z,6.90
2022-12-25T20:23:30.792Z,15.33
2022-12-25T20:26:17.705Z,14.70
2022-12-25T20:29:04.307Z,12.53
2022-12-25T20:31:53.073Z,17.47
2022-12-25T20:34:39.611Z,45.20
2022-12-25T20:37:26.081Z,39.73
2022-12-25T20:40:13.021Z,23.90
2022-12-25T20:42:59.214Z,18.47
2022-12-25T20:45:46.568Z,23.30
2022-12-25T20:48:34.445Z,19.43
2022-12-25T20:51:21.988Z,43.23
2022-12-25T20:54:08.696Z,37.27
2022-12-25T20:56:55.933Z,21.07
2022-12-25T20:59:43.425Z,22.07
2022-12-25T21:02:35.009Z,23.20
2022-12-25T21:05:23.786Z,14.10
2022-12-25T21:08:10.308Z,13.43
2022-12-25T21:11:00.798Z,14.47
2022-12-25T21:13:47.267Z,27.47
2022-12-25T21:16:33.719Z,28.60
2022-12-25T21:19:20.207Z,20.77
2022-12-25T21:22:08.204Z,9.20
2022-12-25T21:24:54.714Z,12.03
2022-12-25T21:27:41.925Z,19.17
2022-12-25T21:30:28.563Z,48.20
2022-12-25T21:33:32.921Z,17.03
2022-12-25T21:36:20.704Z,10.00
2022-12-25T21:39:09.427Z,9.30
2022-12-25T21:41:55.958Z,7.43
2022-12-25T21:44:42.875Z,7.83
2022-12-25T21:48:02.655Z,7.90
2022-12-25T21:50:53.648Z,8.07
2022-12-25T21:53:40.301Z,8.23
2022-12-25T21:56:28.349Z,16.73
2022-12-25T21:59:15.711Z,13.53
2022-12-25T22:02:02.479Z,14.13
2022-12-25T22:04:48.972Z,19.03
2022-12-25T22:07:34.423Z,19.17
2022-12-25T22:10:21.096Z,20.03
2022-12-25T22:13:27.710Z,14.33
2022-12-25T22:16:31.708Z,16.70
2022-12-25T22:19:35.472Z,16.60
2022-12-25T22:22:23.326Z,10.43
2022-12-25T22:25:10.933Z,15.83
2022-12-25T22:27:57.484Z,10.83
2022-12-25T22:30:45.034Z,12.40
2022-12-25T22:33:31.600Z,10.70
2022-12-25T22:36:17.762Z,11.77
2022-12-25T22:39:05.177Z,6.30
2022-12-25T22:41:51.420Z,7.57
2022-12-25T22:44:38.295Z,8.30
2022-12-25T22:47:26.379Z,6.77
2022-12-25T22:50:14.727Z,7.17
2022-12-25T22:53:01.115Z,6.87
2022-12-25T22:55:47.527Z,13.87
2022-12-25T22:58:33.759Z,13.53
2022-12-25T23:01:19.850Z,12.67
2022-12-25T23:04:08.663Z,8.10
2022-12-25T23:06:55.035Z,5.07
2022-12-25T23:09:41.391Z,13.47
2022-12-25T23:12:45.241Z,21.10
2022-12-25T23:15:32.626Z,17.13
2022-12-25T23:18:36.378Z,6.00
2022-12-25T23:21:43.825Z,3.67
2022-12-25T23:24:47.759Z,4.53
2022-12-25T23:27:33.958Z,8.53
2022-12-25T23:30:19.298Z,8.23
2022-12-25T23:33:05.478Z,10.40
2022-12-25T23:35:52.290Z,8.73
2022-12-25T23:38:40.494Z,6.40
2022-12-25T23:41:27.846Z,5.37
2022-12-25T23:44:15.201Z,7.93
2022-12-25T23:47:01.739Z,14.33
2022-12-25T23:49:48.329Z,10.20
2022-12-25T23:52:34.777Z,5.47
2022-12-25T23:55:23.073Z,6.40
2022-12-25T23:58:09.570Z,6.20
